Time;durP1;ratioP1;P1;durP2;ratioP2;P2;SDS_P1;SDS_P2;PMS_P1;PMS_P2;Temp;Humidity;BMP_temperature;BMP_pressure;BME280_temperature;BME280_humidity;BME280_pressure;Samples;Min_cycle;Max_cycle;Signal;HPM_P1;HPM_P2
2023/03/10 00:02:25;;;;;;;3.55;1.35;;;25.60;99.90;;;;;;5092532;28;20201;-77
2023/03/10 00:04:58;;;;;;;5.03;1.52;;;25.60;99.90;;;;;;5092167;28;20720;-76
2023/03/10 00:07:29;;;;;;;4.18;1.30;;;25.70;99.90;;;;;;5095985;28;20191;-76
2023/03/10 00:10:01;;;;;;;2.78;1.33;;;25.60;99.90;;;;;;5103292;28;20199;-76
2023/03/10 00:12:32;;;;;;;8.65;1.63;;;25.70;99.90;;;;;;5109755;28;20211;-76
2023/03/10 00:15:03;;;;;;;4.40;1.27;;;25.80;99.90;;;;;;5110705;28;20198;-75
2023/03/10 00:17:34;;;;;;;3.17;1.35;;;25.80;99.90;;;;;;5110108;28;20202;-76
2023/03/10 00:20:10;;;;;;;4.32;1.48;;;25.90;99.90;;;;;;5098060;28;20673;-76
2023/03/10 00:22:42;;;;;;;7.00;1.33;;;25.90;99.90;;;;;;5109381;28;20675;-76
2023/03/10 00:25:14;;;;;;;6.03;1.50;;;25.80;99.90;;;;;;5110307;28;20688;-76
2023/03/10 00:27:45;;;;;;;3.80;1.50;;;25.80;99.90;;;;;;5110619;28;20705;-77
2023/03/10 00:30:16;;;;;;;2.95;1.10;;;25.80;99.90;;;;;;5103960;28;20556;-77
2023/03/10 00:32:49;;;;;;;5.50;1.13;;;25.70;99.90;;;;;;5110540;28;20199;-77
2023/03/10 00:35:22;;;;;;;4.88;1.50;;;25.60;99.90;;;;;;5094103;28;20210;-77
2023/03/10 00:37:54;;;;;;;3.05;1.23;;;25.50;99.90;;;;;;5109228;28;20542;-77
2023/03/10 00:40:26;;;;;;;4.82;1.23;;;25.50;99.90;;;;;;5104989;28;20666;-76
2023/03/10 00:42:58;;;;;;;7.22;1.40;;;25.50;99.90;;;;;;5092861;28;20198;-76
2023/03/10 00:45:29;;;;;;;4.28;1.30;;;25.50;99.90;;;;;;5104653;28;20218;-77
2023/03/10 00:48:00;;;;;;;2.58;1.25;;;25.50;99.90;;;;;;5106277;28;20198;-77
2023/03/10 00:50:33;;;;;;;3.22;1.20;;;25.50;99.90;;;;;;5103191;28;20208;-76
2023/03/10 00:53:04;;;;;;;3.50;0.98;;;25.50;99.90;;;;;;5109000;28;20194;-77
2023/03/10 00:55:35;;;;;;;6.05;1.33;;;25.50;99.90;;;;;;5111012;28;20213;-76
2023/03/10 00:58:06;;;;;;;6.25;1.52;;;25.50;99.90;;;;;;5114392;28;20202;-77
2023/03/10 01:00:37;;;;;;;4.97;1.17;;;25.60;99.90;;;;;;5095477;28;20191;-76
2023/03/10 01:03:08;;;;;;;4.28;1.02;;;25.60;99.90;;;;;;5096861;28;20195;-77
2023/03/10 01:05:41;;;;;;;3.75;1.33;;;25.50;99.90;;;;;;5100241;28;20697;-77
2023/03/10 01:08:12;;;;;;;3.72;1.27;;;25.50;99.90;;;;;;5111578;28;20329;-77
2023/03/10 01:10:43;;;;;;;4.40;1.10;;;25.50;99.90;;;;;;5105344;27;20194;-77
2023/03/10 01:13:16;;;;;;;3.22;1.35;;;25.50;99.90;;;;;;5111146;28;20203;-77
2023/03/10 01:15:49;;;;;;;2.50;0.98;;;25.50;99.90;;;;;;5093120;28;20554;-77
2023/03/10 01:18:21;;;;;;;5.10;1.20;;;25.50;99.90;;;;;;5114360;28;20198;-77
2023/03/10 01:20:54;;;;;;;2.55;1.10;;;25.50;99.90;;;;;;5098263;28;20218;-77
2023/03/10 01:23:26;;;;;;;4.30;1.30;;;25.50;99.90;;;;;;5096343;28;20195;-76
2023/03/10 01:25:57;;;;;;;5.40;1.10;;;25.60;99.90;;;;;;5101798;28;20576;-76
2023/03/10 01:28:28;;;;;;;4.85;1.10;;;25.60;99.90;;;;;;5093410;28;20235;-76
2023/03/10 01:30:59;;;;;;;5.45;1.20;;;25.60;99.90;;;;;;5096216;27;20199;-77
2023/03/10 01:33:30;;;;;;;3.55;1.00;;;25.80;99.90;;;;;;5099071;28;20568;-76
2023/03/10 01:36:04;;;;;;;4.45;1.15;;;25.90;99.90;;;;;;5099826;28;20195;-77
2023/03/10 01:38:35;;;;;;;3.33;0.93;;;25.80;99.90;;;;;;5110691;28;20198;-76
2023/03/10 01:41:07;;;;;;;2.67;0.88;;;25.80;99.90;;;;;;5096348;28;20205;-76
2023/03/10 01:43:39;;;;;;;3.88;0.88;;;25.90;99.90;;;;;;5109879;28;20665;-77
2023/03/10 01:46:38;;;;;;;2.17;0.98;;;25.80;99.90;;;;;;5111670;28;20222;-77
2023/03/10 01:49:18;;;;;;;5.75;1.00;;;25.90;99.90;;;;;;5106449;28;20207;-76
2023/03/10 01:51:57;;;;;;;3.50;0.85;;;25.80;99.90;;;;;;5100735;28;20301;-76
2023/03/10 01:54:33;;;;;;;3.78;1.00;;;25.80;99.90;;;;;;5097221;28;20665;-76
2023/03/10 01:57:05;;;;;;;2.92;1.10;;;25.90;99.90;;;;;;5108313;27;20194;-77
2023/03/10 01:59:37;;;;;;;4.10;1.10;;;26.00;99.90;;;;;;5098549;28;20195;-76
2023/03/10 02:02:08;;;;;;;1.95;0.82;;;26.20;99.90;;;;;;5101514;28;20195;-77
2023/03/10 02:04:43;;;;;;;6.65;1.20;;;26.40;99.90;;;;;;5106208;28;20232;-78
2023/03/10 02:07:18;;;;;;;3.22;1.00;;;26.50;99.90;;;;;;5092293;28;20219;-78
2023/03/10 02:09:54;;;;;;;3.28;0.80;;;26.40;99.90;;;;;;5095419;28;20194;-78
2023/03/10 02:12:25;;;;;;;3.03;0.93;;;26.30;99.90;;;;;;5106939;28;20197;-78
2023/03/10 02:14:56;;;;;;;3.85;1.08;;;26.40;99.90;;;;;;5097900;28;20677;-78
2023/03/10 02:17:29;;;;;;;3.60;0.93;;;26.40;99.90;;;;;;5090317;28;20195;-77
2023/03/10 02:20:24;;;;;;;4.72;1.10;;;26.40;99.90;;;;;;5108002;28;20194;-77
2023/03/10 02:22:58;;;;;;;5.35;0.82;;;26.40;99.90;;;;;;5092773;28;20677;-77
2023/03/10 02:25:37;;;;;;;4.93;1.10;;;26.50;99.90;;;;;;5089449;28;20227;-78
2023/03/10 02:28:10;;;;;;;3.13;0.90;;;26.60;99.90;;;;;;5102843;28;20234;-78
2023/03/10 02:30:43;;;;;;;4.70;1.00;;;26.90;99.90;;;;;;5111108;28;20562;-77
2023/03/10 02:33:18;;;;;;;4.03;1.10;;;27.10;99.90;;;;;;5109163;28;20195;-78
2023/03/10 02:35:49;;;;;;;4.53;1.13;;;27.20;99.90;;;;;;5092410;28;20195;-77
2023/03/10 02:38:20;;;;;;;2.92;0.85;;;27.40;99.90;;;;;;5091157;28;20692;-77
2023/03/10 02:40:54;;;;;;;4.18;1.10;;;27.50;99.90;;;;;;5091101;28;20223;-77
2023/03/10 02:43:30;;;;;;;3.20;1.00;;;27.60;99.90;;;;;;5092151;28;20479;-78
2023/03/10 02:46:03;;;;;;;3.97;0.90;;;27.70;99.90;;;;;;5110682;28;20237;-77
2023/03/10 02:48:36;;;;;;;3.33;1.08;;;27.80;99.90;;;;;;5111700;28;20687;-77
2023/03/10 02:51:11;;;;;;;4.78;1.17;;;27.90;99.90;;;;;;5110880;28;20191;-77
2023/03/10 02:53:42;;;;;;;4.15;1.15;;;27.90;99.90;;;;;;5111398;28;20205;-76
2023/03/10 02:56:13;;;;;;;3.25;1.00;;;27.90;99.90;;;;;;5111410;28;20194;-76
2023/03/10 02:58:46;;;;;;;2.97;1.00;;;27.90;99.90;;;;;;5113261;28;20202;-76
2023/03/10 03:01:17;;;;;;;3.20;1.00;;;27.80;99.90;;;;;;5101648;28;20514;-76
2023/03/10 03:03:49;;;;;;;7.30;0.90;;;27.90;99.90;;;;;;5090996;28;20654;-77
2023/03/10 03:06:20;;;;;;;2.92;0.90;;;27.90;99.90;;;;;;5107815;28;20214;-77
2023/03/10 03:08:51;;;;;;;5.18;1.00;;;28.00;99.90;;;;;;5111300;28;20198;-77
2023/03/10 03:11:23;;;;;;;4.63;1.00;;;28.10;99.90;;;;;;5111860;28;20201;-77
2023/03/10 03:13:56;;;;;;;4.65;1.00;;;28.00;99.90;;;;;;5111515;28;20598;-77
2023/03/10 03:16:27;;;;;;;3.15;1.00;;;28.00;99.90;;;;;;5101968;28;20279;-77
2023/03/10 03:18:58;;;;;;;4.07;1.00;;;28.10;99.90;;;;;;5091566;28;20203;-77
2023/03/10 03:21:29;;;;;;;3.28;1.00;;;28.10;99.90;;;;;;5091209;28;20198;-77
2023/03/10 03:24:00;;;;;;;3.38;0.90;;;28.10;99.90;;;;;;5091528;28;20195;-76
2023/03/10 03:26:32;;;;;;;3.03;0.75;;;28.00;99.90;;;;;;5090992;28;20702;-76
2023/03/10 03:29:05;;;;;;;2.40;0.60;;;28.00;99.90;;;;;;5091500;28;20215;-77
2023/03/10 03:31:36;;;;;;;4.72;1.02;;;28.20;99.90;;;;;;5090002;28;20209;-76
2023/03/10 03:34:07;;;;;;;3.47;1.02;;;28.30;99.90;;;;;;5090912;28;20202;-77
2023/03/10 03:36:38;;;;;;;3.28;1.10;;;28.40;99.90;;;;;;5091494;28;20650;-76
2023/03/10 03:39:09;;;;;;;2.90;0.85;;;28.50;99.90;;;;;;5102979;28;20664;-76
2023/03/10 03:41:42;;;;;;;3.75;0.70;;;28.60;99.90;;;;;;5110924;28;20218;-76
2023/03/10 03:44:15;;;;;;;3.03;0.70;;;28.70;99.90;;;;;;5111018;28;20195;-77
2023/03/10 03:46:46;;;;;;;4.03;0.90;;;28.50;99.90;;;;;;5111657;28;20237;-77
2023/03/10 03:49:17;;;;;;;3.25;0.80;;;28.40;99.90;;;;;;5105346;28;20199;-77
2023/03/10 03:51:48;;;;;;;2.38;0.70;;;28.20;99.90;;;;;;5091650;28;20204;-77
2023/03/10 03:54:19;;;;;;;2.55;0.80;;;28.20;99.90;;;;;;5092390;28;20209;-77
2023/03/10 03:56:50;;;;;;;2.63;0.80;;;28.10;99.90;;;;;;5090841;28;20192;-77
2023/03/10 03:59:23;;;;;;;3.03;0.75;;;28.10;99.90;;;;;;5094666;28;20573;-77
2023/03/10 04:01:54;;;;;;;3.25;1.15;;;28.20;99.90;;;;;;5091110;28;20196;-77
2023/03/10 04:04:25;;;;;;;3.10;0.73;;;28.30;99.90;;;;;;5109458;28;20273;-76
2023/03/10 04:06:57;;;;;;;1.98;0.60;;;28.40;99.90;;;;;;5099233;28;20234;-77
2023/03/10 04:09:28;;;;;;;4.43;1.02;;;28.40;99.90;;;;;;5094849;28;20199;-76
2023/03/10 04:11:59;;;;;;;2.25;0.90;;;28.30;99.90;;;;;;5094099;28;20223;-77
2023/03/10 04:14:32;;;;;;;4.63;1.13;;;28.40;99.90;;;;;;5097311;28;20649;-76
2023/03/10 04:17:03;;;;;;;2.03;0.80;;;28.50;99.90;;;;;;5094978;28;20191;-77
2023/03/10 04:19:35;;;;;;;4.00;1.10;;;28.40;99.90;;;;;;5094581;28;20202;-77
2023/03/10 04:22:06;;;;;;;7.55;1.17;;;28.40;99.90;;;;;;5094134;28;20199;-78
2023/03/10 04:24:39;;;;;;;3.35;0.88;;;28.30;99.90;;;;;;5105805;28;20641;-76
2023/03/10 04:27:10;;;;;;;7.95;1.20;;;28.20;99.90;;;;;;5103068;28;20607;-77
2023/03/10 04:29:43;;;;;;;4.13;0.98;;;28.20;99.90;;;;;;5097193;28;20202;-76
2023/03/10 04:32:14;;;;;;;3.00;1.00;;;28.10;99.90;;;;;;5097174;28;20218;-77
2023/03/10 04:34:45;;;;;;;3.67;0.90;;;28.00;99.90;;;;;;5097528;28;20553;-77
2023/03/10 04:37:16;;;;;;;4.78;1.10;;;27.90;99.90;;;;;;5095370;28;20662;-77
2023/03/10 04:39:47;;;;;;;3.78;1.08;;;27.90;99.90;;;;;;5094616;28;20680;-77
2023/03/10 04:42:18;;;;;;;3.10;0.80;;;27.80;99.90;;;;;;5104691;28;20214;-77
2023/03/10 04:44:51;;;;;;;5.05;0.75;;;27.80;99.90;;;;;;5094120;28;20559;-76
2023/03/10 04:47:23;;;;;;;6.25;1.30;;;27.80;99.90;;;;;;5099804;28;20227;-77
2023/03/10 04:49:54;;;;;;;3.75;1.10;;;27.90;99.90;;;;;;5096234;28;20195;-76
2023/03/10 04:52:25;;;;;;;5.30;1.15;;;27.90;99.90;;;;;;5095255;28;20206;-77
2023/03/10 04:54:56;;;;;;;6.50;1.30;;;27.90;99.90;;;;;;5096815;28;20203;-76
2023/03/10 04:57:27;;;;;;;3.78;0.98;;;27.80;99.90;;;;;;5101279;28;20195;-77
2023/03/10 05:00:00;;;;;;;2.95;1.00;;;27.90;99.90;;;;;;5116901;27;20202;-76
2023/03/10 05:02:33;;;;;;;3.20;1.30;;;28.00;99.90;;;;;;5116789;28;20198;-77
2023/03/10 05:05:05;;;;;;;4.13;0.90;;;28.10;99.90;;;;;;5097716;28;20206;-76
2023/03/10 05:07:36;;;;;;;3.85;1.00;;;28.10;99.90;;;;;;5096368;28;20287;-77
2023/03/10 05:10:08;;;;;;;5.32;1.20;;;28.00;99.90;;;;;;5094635;28;20215;-78
2023/03/10 05:12:41;;;;;;;5.82;1.35;;;28.20;99.90;;;;;;5098412;28;20193;-77
2023/03/10 05:15:15;;;;;;;4.25;1.20;;;28.20;99.90;;;;;;5096778;28;20576;-77
2023/03/10 05:17:49;;;;;;;4.85;1.23;;;28.20;99.90;;;;;;5103005;28;20202;-79
2023/03/10 05:20:20;;;;;;;6.25;1.10;;;28.20;99.90;;;;;;5104556;28;20215;-78
2023/03/10 05:22:51;;;;;;;3.15;1.00;;;28.10;99.90;;;;;;5094423;28;20191;-79
2023/03/10 05:25:22;;;;;;;2.67;0.80;;;28.10;99.90;;;;;;5093913;28;20198;-79
2023/03/10 05:27:54;;;;;;;7.63;1.20;;;28.10;99.90;;;;;;5093885;28;20235;-78
2023/03/10 05:30:27;;;;;;;4.82;1.20;;;28.10;99.90;;;;;;5092946;28;23899;-78
2023/03/10 05:32:58;;;;;;;5.57;1.10;;;28.20;99.90;;;;;;5097782;28;20210;-78
2023/03/10 05:35:29;;;;;;;4.20;1.15;;;28.10;99.90;;;;;;5099881;28;20199;-79
2023/03/10 05:38:00;;;;;;;4.22;1.10;;;27.80;99.90;;;;;;5110742;28;20653;-79
2023/03/10 05:40:31;;;;;;;6.90;1.25;;;27.90;99.90;;;;;;5105779;28;20197;-78
2023/03/10 05:43:04;;;;;;;5.43;1.20;;;27.90;99.90;;;;;;5112721;28;20194;-78
2023/03/10 05:45:37;;;;;;;5.55;1.15;;;28.10;99.90;;;;;;5095829;28;20202;-78
2023/03/10 05:48:09;;;;;;;4.90;1.17;;;28.20;99.90;;;;;;5096292;28;20207;-78
2023/03/10 05:50:40;;;;;;;5.95;1.25;;;28.40;99.90;;;;;;5106375;28;20195;-78
2023/03/10 05:53:12;;;;;;;6.32;1.10;;;28.50;99.90;;;;;;5106129;28;20195;-78
2023/03/10 05:55:43;;;;;;;5.13;1.20;;;28.50;99.90;;;;;;5106936;28;20194;-79
2023/03/10 05:58:14;;;;;;;4.38;1.25;;;28.40;99.90;;;;;;5114307;27;20198;-79
2023/03/10 06:00:48;;;;;;;3.80;1.27;;;28.40;99.90;;;;;;5104127;28;20190;-79
2023/03/10 06:03:21;;;;;;;5.05;1.30;;;28.50;99.90;;;;;;5117197;28;20204;-79
2023/03/10 06:05:55;;;;;;;6.32;1.20;;;28.30;99.90;;;;;;5094437;28;20222;-78
2023/03/10 06:08:27;;;;;;;7.45;1.13;;;28.40;99.90;;;;;;5097226;28;20973;-79
2023/03/10 06:10:59;;;;;;;4.13;1.17;;;28.60;99.90;;;;;;5105278;28;20191;-78
2023/03/10 06:13:30;;;;;;;4.70;1.27;;;28.70;99.90;;;;;;5092423;28;20249;-79
2023/03/10 06:16:06;;;;;;;5.30;1.10;;;28.80;99.90;;;;;;5106699;28;20658;-79
2023/03/10 06:18:37;;;;;;;3.67;0.95;;;28.90;99.90;;;;;;5113701;28;20210;-77
2023/03/10 06:21:10;;;;;;;7.05;1.10;;;28.90;99.90;;;;;;5112763;28;20226;-78
2023/03/10 06:23:42;;;;;;;3.67;1.20;;;29.10;99.90;;;;;;5112367;28;20194;-78
2023/03/10 06:26:16;;;;;;;4.47;1.17;;;29.10;99.90;;;;;;5105438;28;20206;-78
2023/03/10 06:28:48;;;;;;;5.65;1.17;;;29.20;99.90;;;;;;5110503;28;20190;-78
2023/03/10 06:31:26;;;;;;;3.22;1.00;;;29.40;99.90;;;;;;5100398;28;20191;-78
2023/03/10 06:33:58;;;;;;;5.55;1.30;;;29.60;99.90;;;;;;5093209;28;20358;-78
2023/03/10 06:36:30;;;;;;;5.40;1.13;;;29.80;99.90;;;;;;5094614;28;20230;-78
2023/03/10 06:39:01;;;;;;;6.38;1.23;;;30.00;99.90;;;;;;5108539;28;20191;-79
2023/03/10 06:41:32;;;;;;;7.00;1.00;;;30.00;99.90;;;;;;5097305;28;20661;-79
2023/03/10 06:44:03;;;;;;;5.55;1.20;;;30.10;99.90;;;;;;5108416;28;20192;-79
2023/03/10 06:46:37;;;;;;;4.53;0.80;;;30.20;99.90;;;;;;5092208;28;20199;-79
2023/03/10 06:49:08;;;;;;;5.80;1.40;;;30.10;99.90;;;;;;5091498;28;20210;-78
2023/03/10 06:51:39;;;;;;;6.07;1.25;;;30.30;99.90;;;;;;5092032;28;20657;-79
2023/03/10 06:54:10;;;;;;;4.07;1.08;;;30.30;99.90;;;;;;5091734;28;20206;-79
2023/03/10 06:56:41;;;;;;;3.42;1.10;;;30.50;99.90;;;;;;5098192;28;20199;-78
2023/03/10 06:59:12;;;;;;;7.13;1.17;;;30.70;99.90;;;;;;5097622;28;20198;-79
2023/03/10 07:01:46;;;;;;;5.45;1.48;;;30.90;99.90;;;;;;5091423;28;20202;-79
2023/03/10 07:04:17;;;;;;;7.93;1.38;;;31.20;99.90;;;;;;5101048;28;20221;-78
2023/03/10 07:06:48;;;;;;;5.15;1.00;;;31.30;99.90;;;;;;5109211;28;20207;-79
2023/03/10 07:09:19;;;;;;;4.10;1.15;;;31.10;99.90;;;;;;5096092;28;20658;-78
2023/03/10 07:11:50;;;;;;;2.75;0.90;;;31.10;99.90;;;;;;5090884;28;20573;-79
2023/03/10 07:14:22;;;;;;;4.80;1.30;;;31.10;99.90;;;;;;5090639;28;20661;-78
2023/03/10 07:16:55;;;;;;;4.35;1.08;;;31.00;99.90;;;;;;5091674;28;20203;-78
2023/03/10 07:19:26;;;;;;;6.65;1.27;;;31.10;99.90;;;;;;5094345;28;20567;-79
2023/03/10 07:21:57;;;;;;;6.18;1.38;;;30.80;99.90;;;;;;5102054;28;20494;-79
2023/03/10 07:24:29;;;;;;;3.25;1.10;;;30.50;99.90;;;;;;5105044;28;20211;-79
2023/03/10 07:27:02;;;;;;;5.22;1.17;;;30.30;99.90;;;;;;5090244;28;20234;-79
2023/03/10 07:29:33;;;;;;;5.75;1.42;;;30.10;99.90;;;;;;5093333;28;20195;-78
2023/03/10 07:32:06;;;;;;;3.72;0.90;;;29.80;99.90;;;;;;5109303;28;20285;-79
2023/03/10 07:34:38;;;;;;;4.70;1.38;;;29.60;99.90;;;;;;5092342;28;20203;-78
2023/03/10 07:37:09;;;;;;;6.22;1.38;;;29.30;99.90;;;;;;5092251;28;20589;-78
2023/03/10 07:39:40;;;;;;;4.30;1.33;;;29.00;99.90;;;;;;5097244;28;20193;-78
2023/03/10 07:42:12;;;;;;;5.90;1.67;;;29.00;99.90;;;;;;5095529;28;20195;-80
2023/03/10 07:44:43;;;;;;;6.50;1.38;;;28.70;99.90;;;;;;5110320;28;20206;-81
2023/03/10 07:47:16;;;;;;;5.65;1.50;;;28.50;99.90;;;;;;5115779;28;20717;-79
2023/03/10 07:49:47;;;;;;;6.05;1.60;;;28.20;99.90;;;;;;5109651;28;20195;-79
2023/03/10 07:52:19;;;;;;;5.55;1.40;;;27.90;99.90;;;;;;5095209;28;20274;-79
2023/03/10 07:54:50;;;;;;;6.20;1.50;;;27.50;99.90;;;;;;5103703;28;20201;-80
2023/03/10 07:57:24;;;;;;;5.72;1.60;;;27.40;99.90;;;;;;5123956;28;20675;-80
2023/03/10 07:59:55;;;;;;;5.00;1.50;;;27.10;99.90;;;;;;5114975;28;20198;-79
2023/03/10 08:02:28;;;;;;;4.95;1.40;;;26.90;99.90;;;;;;5109519;28;20203;-79
2023/03/10 08:05:02;;;;;;;8.00;1.73;;;26.70;99.90;;;;;;5116407;28;20202;-82
2023/03/10 08:07:33;;;;;;;5.28;1.17;;;26.70;99.90;;;;;;5112462;28;20214;-79
2023/03/10 08:10:04;;;;;;;4.57;1.33;;;26.60;99.90;;;;;;5100687;28;20195;-80
2023/03/10 08:12:36;;;;;;;3.60;1.25;;;26.40;99.90;;;;;;5099383;28;20252;-78
2023/03/10 08:15:08;;;;;;;4.28;1.23;;;26.30;99.90;;;;;;5106169;28;20206;-79
2023/03/10 08:17:41;;;;;;;8.02;1.48;;;26.20;99.90;;;;;;5097738;28;20592;-78
2023/03/10 08:20:13;;;;;;;6.43;1.50;;;26.20;99.90;;;;;;5111074;28;20218;-79
2023/03/10 08:22:44;;;;;;;9.38;1.50;;;26.10;99.90;;;;;;5101077;28;20191;-78
2023/03/10 08:25:15;;;;;;;5.60;1.38;;;26.10;99.90;;;;;;5106126;28;20282;-78
2023/03/10 08:27:47;;;;;;;7.20;1.38;;;26.00;99.90;;;;;;5095445;28;20270;-79
2023/03/10 08:30:18;;;;;;;6.97;1.42;;;25.90;99.90;;;;;;5103539;28;20567;-79
2023/03/10 08:32:51;;;;;;;4.22;1.27;;;25.90;99.90;;;;;;5113516;28;20202;-79
2023/03/10 08:35:22;;;;;;;8.32;1.60;;;25.80;99.90;;;;;;5107457;28;20196;-78
2023/03/10 08:37:55;;;;;;;4.65;1.30;;;25.70;99.90;;;;;;5100960;28;20223;-79
2023/03/10 08:40:26;;;;;;;6.20;1.77;;;25.70;99.90;;;;;;5107988;28;20195;-79
2023/03/10 08:42:58;;;;;;;5.13;1.17;;;25.70;99.90;;;;;;5106005;28;20202;-79
2023/03/10 08:45:29;;;;;;;6.25;1.40;;;25.60;99.90;;;;;;5110436;28;20203;-79
2023/03/10 08:48:02;;;;;;;5.00;1.70;;;25.50;99.90;;;;;;5092423;28;20223;-80
2023/03/10 08:50:33;;;;;;;4.47;1.48;;;25.50;99.90;;;;;;5094857;28;20210;-80
2023/03/10 08:53:04;;;;;;;6.80;1.58;;;25.50;99.90;;;;;;5114564;28;20535;-79
2023/03/10 08:55:36;;;;;;;8.60;1.75;;;25.50;99.90;;;;;;5095289;28;20192;-79
2023/03/10 08:58:07;;;;;;;5.22;1.50;;;25.50;99.90;;;;;;5113597;28;20194;-79
2023/03/10 09:00:38;;;;;;;4.95;1.48;;;25.50;99.90;;;;;;5101350;28;20199;-79
2023/03/10 09:03:11;;;;;;;13.07;1.95;;;25.50;99.90;;;;;;5093225;28;20285;-78
2023/03/10 09:05:42;;;;;;;9.30;1.60;;;25.50;99.90;;;;;;5107145;28;20199;-79
2023/03/10 09:08:13;;;;;;;6.80;1.45;;;25.50;99.90;;;;;;5110112;28;20589;-80
2023/03/10 09:10:46;;;;;;;5.95;1.17;;;25.50;99.90;;;;;;5104959;28;20191;-79
2023/03/10 09:13:19;;;;;;;6.65;1.30;;;25.50;99.90;;;;;;5100781;28;20241;-79
2023/03/10 09:15:51;;;;;;;10.15;1.58;;;25.40;99.90;;;;;;5095131;28;20196;-80
2023/03/10 09:18:24;;;;;;;7.20;1.50;;;25.40;99.90;;;;;;5095639;28;20268;-78
2023/03/10 09:20:55;;;;;;;5.65;1.40;;;25.40;99.90;;;;;;5106375;28;20205;-80
2023/03/10 09:23:26;;;;;;;8.57;1.58;;;25.40;99.90;;;;;;5104350;28;20191;-78
2023/03/10 09:25:57;;;;;;;9.65;1.63;;;25.40;99.90;;;;;;5108392;28;20953;-77
2023/03/10 09:28:29;;;;;;;5.82;1.40;;;25.40;99.90;;;;;;5113304;27;20242;-77
2023/03/10 09:31:00;;;;;;;5.07;1.10;;;25.30;99.90;;;;;;5112460;28;20198;-78
2023/03/10 09:33:33;;;;;;;5.68;1.65;;;25.30;99.90;;;;;;5106128;28;20221;-79
2023/03/10 09:36:04;;;;;;;7.82;1.63;;;25.30;99.90;;;;;;5097791;28;20195;-79
2023/03/10 09:38:36;;;;;;;6.07;1.52;;;25.40;99.90;;;;;;5092876;28;20222;-78
2023/03/10 09:41:23;;;;;;;4.32;1.33;;;25.30;99.90;;;;;;5112458;28;20565;-79
2023/03/10 09:44:03;;;;;;;5.93;1.35;;;25.30;99.90;;;;;;5100153;28;20195;-78
2023/03/10 09:46:44;;;;;;;6.97;1.65;;;25.30;99.90;;;;;;5107159;28;20669;-78
2023/03/10 09:49:21;;;;;;;5.45;1.50;;;25.40;99.90;;;;;;5104853;28;20218;-80
2023/03/10 09:51:52;;;;;;;9.77;2.28;;;25.30;99.90;;;;;;5105844;28;20674;-80
2023/03/10 09:54:41;;;;;;;4.43;1.23;;;25.30;99.90;;;;;;5096282;28;20563;-79
2023/03/10 09:57:19;;;;;;;6.72;1.50;;;25.10;99.90;;;;;;5092783;28;20203;-78
2023/03/10 09:59:54;;;;;;;7.35;1.83;;;25.10;99.90;;;;;;5093945;28;20190;-78
2023/03/10 10:02:29;;;;;;;11.45;1.70;;;25.10;99.90;;;;;;5112686;28;20213;-78
2023/03/10 10:05:10;;;;;;;11.60;1.63;;;25.20;99.90;;;;;;5111759;28;20206;-78
2023/03/10 10:07:45;;;;;;;7.25;1.63;;;25.00;99.90;;;;;;5092843;28;20191;-79
2023/03/10 10:10:21;;;;;;;7.95;1.42;;;25.10;99.90;;;;;;5107140;28;20440;-79
2023/03/10 10:12:54;;;;;;;7.82;1.50;;;25.10;99.90;;;;;;5113669;28;20207;-77
2023/03/10 10:15:30;;;;;;;8.02;1.55;;;25.10;99.90;;;;;;5096635;28;20199;-79
2023/03/10 10:18:13;;;;;;;8.73;1.60;;;25.10;99.90;;;;;;5105887;27;20294;-79
2023/03/10 10:20:50;;;;;;;9.70;1.73;;;25.10;99.90;;;;;;5105886;28;20221;-79
2023/03/10 10:23:33;;;;;;;6.97;1.70;;;25.10;99.90;;;;;;5111465;27;20217;-79
2023/03/10 10:26:11;;;;;;;7.43;1.45;;;25.20;99.90;;;;;;5102102;28;20639;-81
2023/03/10 10:28:49;;;;;;;7.78;1.70;;;25.10;99.90;;;;;;5096071;28;20222;-79
2023/03/10 10:31:23;;;;;;;5.57;1.50;;;25.10;99.90;;;;;;5101603;28;20195;-79
2023/03/10 10:33:59;;;;;;;6.97;1.60;;;25.20;99.90;;;;;;5095586;28;20669;-79
2023/03/10 10:36:34;;;;;;;8.80;1.90;;;25.20;99.90;;;;;;5091242;28;20230;-78
2023/03/10 10:39:06;;;;;;;9.00;1.67;;;25.10;99.90;;;;;;5091676;28;20221;-78
2023/03/10 10:41:37;;;;;;;6.22;1.60;;;25.10;99.90;;;;;;5100979;28;20198;-79
2023/03/10 10:44:16;;;;;;;7.90;1.80;;;25.10;99.90;;;;;;5098298;27;20196;-79
2023/03/10 10:46:55;;;;;;;6.63;1.38;;;25.00;99.90;;;;;;5096114;28;20194;-79
2023/03/10 10:49:27;;;;;;;9.10;1.70;;;25.00;99.90;;;;;;5098350;28;20232;-80
2023/03/10 10:52:05;;;;;;;6.20;1.42;;;25.00;99.90;;;;;;5092026;27;20692;-78
2023/03/10 10:54:39;;;;;;;8.10;1.60;;;25.10;99.90;;;;;;5100863;28;20194;-79
2023/03/10 10:57:20;;;;;;;7.05;1.67;;;25.00;99.90;;;;;;5098038;28;20672;-78
2023/03/10 10:59:52;;;;;;;8.73;2.08;;;25.00;99.90;;;;;;5097672;28;20187;-79
2023/03/10 11:02:31;;;;;;;9.68;1.77;;;24.90;99.90;;;;;;5113375;28;20186;-79
2023/03/10 11:05:15;;;;;;;11.65;1.75;;;25.00;99.90;;;;;;5114224;28;20221;-79
2023/03/10 11:08:01;;;;;;;7.30;1.35;;;25.00;99.90;;;;;;5094397;28;20655;-80
2023/03/10 11:10:36;;;;;;;8.80;1.73;;;25.00;99.90;;;;;;5106907;28;20190;-78
2023/03/10 11:13:16;;;;;;;5.93;1.73;;;25.00;99.90;;;;;;5114766;28;20194;-79
2023/03/10 11:15:56;;;;;;;10.35;1.73;;;25.00;99.90;;;;;;5113031;28;20197;-78
2023/03/10 11:18:32;;;;;;;6.30;1.48;;;25.00;99.90;;;;;;5116216;28;20186;-78
2023/03/10 11:21:12;;;;;;;7.28;1.60;;;24.90;99.90;;;;;;5115261;28;20563;-78
2023/03/10 11:23:57;;;;;;;7.65;1.55;;;24.90;99.90;;;;;;5113416;28;20205;-79
2023/03/10 11:26:39;;;;;;;9.55;2.00;;;24.90;99.90;;;;;;5093554;28;20198;-78
2023/03/10 11:29:21;;;;;;;7.18;2.00;;;24.90;99.90;;;;;;5092750;28;20233;-79
2023/03/10 11:31:56;;;;;;;7.43;1.65;;;24.90;99.90;;;;;;5106495;28;20195;-79
2023/03/10 11:34:40;;;;;;;9.40;1.83;;;24.90;99.90;;;;;;5097521;28;20553;-79
2023/03/10 11:37:21;;;;;;;8.68;1.85;;;24.90;99.90;;;;;;5100337;28;20222;-79
2023/03/10 11:40:06;;;;;;;8.10;1.80;;;24.90;99.90;;;;;;5102018;28;20763;-79
2023/03/10 11:42:47;;;;;;;6.00;1.67;;;24.90;99.90;;;;;;5103808;28;20541;-79
2023/03/10 11:45:26;;;;;;;8.60;1.83;;;24.90;99.90;;;;;;5094466;28;20199;-79
2023/03/10 11:48:12;;;;;;;8.70;1.65;;;24.90;99.90;;;;;;5094239;28;20198;-79
2023/03/10 11:50:49;;;;;;;8.30;2.05;;;24.90;99.90;;;;;;5094538;28;20192;-80
2023/03/10 11:53:28;;;;;;;8.27;1.60;;;24.90;99.90;;;;;;5096372;28;20263;-80
2023/03/10 11:56:03;;;;;;;7.10;1.60;;;24.90;99.90;;;;;;5094406;28;20700;-80
2023/03/10 11:58:44;;;;;;;8.38;1.63;;;24.80;99.90;;;;;;5097686;28;20199;-80
2023/03/10 12:01:21;;;;;;;8.20;2.10;;;24.80;99.90;;;;;;5105484;28;20199;-80
2023/03/10 12:03:58;;;;;;;9.57;1.98;;;24.80;99.90;;;;;;5097964;28;20199;-79
2023/03/10 12:06:37;;;;;;;9.80;2.03;;;24.80;99.90;;;;;;5096265;28;20586;-79
2023/03/10 12:09:09;;;;;;;8.18;1.80;;;24.80;99.90;;;;;;5110907;28;20222;-79
2023/03/10 12:11:43;;;;;;;12.13;2.13;;;24.80;99.90;;;;;;5096198;28;20676;-79
2023/03/10 12:14:16;;;;;;;7.60;1.70;;;24.80;99.90;;;;;;5110771;28;20194;-78
2023/03/10 12:16:48;;;;;;;7.97;1.85;;;24.90;99.90;;;;;;5108042;28;20202;-78
2023/03/10 12:19:19;;;;;;;9.93;2.10;;;24.80;99.90;;;;;;5117549;28;20201;-78
2023/03/10 12:22:27;;;;;;;6.63;1.70;;;24.70;99.90;;;;;;5109673;28;20191;-77
2023/03/10 12:24:58;;;;;;;6.40;1.70;;;24.80;99.90;;;;;;5098298;28;20638;-79
2023/03/10 12:28:11;;;;;;;8.48;1.67;;;24.80;99.90;;;;;;5097634;28;20705;-78
2023/03/10 12:30:50;;;;;;;16.50;2.22;;;24.70;99.90;;;;;;5098878;28;20286;-78
2023/03/10 12:33:43;;;;;;;6.32;1.58;;;24.70;99.90;;;;;;5100957;28;20194;-79
2023/03/10 12:36:17;;;;;;;12.30;2.10;;;24.70;99.90;;;;;;5104942;28;20521;-80
2023/03/10 12:38:53;;;;;;;9.70;1.80;;;24.70;99.90;;;;;;5101220;28;20207;-79
2023/03/10 12:41:47;;;;;;;8.98;1.83;;;24.70;99.90;;;;;;5110555;28;20201;-78
2023/03/10 12:44:52;;;;;;;7.50;1.77;;;24.70;99.90;;;;;;5109084;28;20202;-78
2023/03/10 12:47:54;;;;;;;8.00;1.92;;;24.70;99.90;;;;;;5103554;28;20207;-79
2023/03/10 12:50:43;;;;;;;7.15;2.08;;;24.70;99.90;;;;;;5107716;28;20225;-79
2023/03/10 12:53:30;;;;;;;9.80;1.67;;;24.70;99.90;;;;;;5100619;28;20569;-79
2023/03/10 12:56:35;;;;;;;7.38;1.88;;;24.70;99.90;;;;;;5104848;28;20549;-79
2023/03/10 12:59:13;;;;;;;11.85;2.20;;;24.70;99.90;;;;;;5088177;28;20195;-78
2023/03/10 13:01:47;;;;;;;9.45;1.83;;;24.60;99.90;;;;;;5092878;28;20192;-79
2023/03/10 13:04:24;;;;;;;8.35;1.90;;;24.60;99.90;;;;;;5099577;28;20199;-79
2023/03/10 13:07:02;;;;;;;8.85;1.83;;;24.60;99.90;;;;;;5105715;28;20225;-78
2023/03/10 13:09:37;;;;;;;9.18;1.88;;;24.60;99.90;;;;;;5114962;27;20317;-79
2023/03/10 13:12:17;;;;;;;7.60;1.67;;;24.50;99.90;;;;;;5094893;28;20669;-79
2023/03/10 13:15:07;;;;;;;8.48;1.88;;;24.60;99.90;;;;;;5116434;28;20205;-78
2023/03/10 13:17:38;;;;;;;5.82;1.50;;;24.60;99.90;;;;;;5108853;28;20195;-78
2023/03/10 13:20:18;;;;;;;13.68;2.38;;;24.60;99.90;;;;;;5099249;28;20214;-79
2023/03/10 13:22:58;;;;;;;9.77;2.00;;;24.60;99.90;;;;;;5121699;28;20191;-79